createdAt,value
2018-03-06T00:00:48.796Z,53.12
2018-03-06T00:02:26.532Z,53.14
2018-03-06T00:04:05.135Z,53.13
2018-03-06T00:05:42.687Z,53.14
2018-03-06T00:07:20.579Z,53.14
2018-03-06T00:08:58.831Z,53.16
2018-03-06T00:10:36.842Z,53.16
2018-03-06T00:12:14.898Z,53.14
2018-03-06T00:13:57.260Z,53.14
2018-03-06T00:15:35.709Z,53.15
2018-03-06T00:17:14.643Z,53.13
2018-03-06T00:18:53.276Z,53.12
2018-03-06T00:20:31.439Z,53.14
2018-03-06T00:22:10.051Z,53.17
2018-03-06T00:23:47.899Z,53.18
2018-03-06T00:25:25.765Z,53.19
2018-03-06T00:27:03.508Z,53.22
2018-03-06T00:28:42.451Z,53.24
2018-03-06T00:30:20.981Z,53.26
2018-03-06T00:32:00.909Z,53.28
2018-03-06T00:33:38.582Z,53.30
2018-03-06T00:35:16.458Z,53.33
2018-03-06T00:36:54.297Z,53.37
2018-03-06T00:38:32.270Z,53.38
2018-03-06T00:40:11.417Z,53.38
2018-03-06T00:41:49.511Z,53.37
2018-03-06T00:43:27.473Z,53.35
2018-03-06T00:45:05.193Z,53.33
2018-03-06T00:46:43.594Z,53.33
2018-03-06T00:48:22.076Z,53.35
2018-03-06T00:50:00.130Z,53.36
2018-03-06T00:51:37.752Z,53.38
2018-03-06T00:53:16.377Z,53.42
2018-03-06T00:54:55.237Z,53.45
2018-03-06T00:56:33.336Z,53.47
2018-03-06T00:58:11.551Z,53.49
2018-03-06T00:59:50.373Z,53.52
2018-03-06T01:01:28.748Z,53.52
2018-03-06T01:03:07.080Z,53.53
2018-03-06T01:04:45.196Z,53.52
2018-03-06T01:06:23.051Z,53.50
2018-03-06T01:08:02.071Z,53.49
2018-03-06T01:09:40.733Z,53.54
2018-03-06T01:11:18.514Z,53.60
2018-03-06T01:12:56.695Z,53.65
2018-03-06T01:14:35.019Z,53.69
2018-03-06T01:16:13.543Z,53.75
2018-03-06T01:17:52.224Z,53.79
2018-03-06T01:19:30.346Z,53.82
2018-03-06T01:21:09.116Z,53.83
2018-03-06T01:22:47.763Z,53.81
2018-03-06T01:24:26.086Z,53.73
2018-03-06T01:26:03.796Z,53.70
2018-03-06T01:27:41.981Z,53.70
2018-03-06T01:29:19.430Z,53.73
2018-03-06T01:30:57.313Z,53.77
2018-03-06T01:32:36.124Z,53.75
2018-03-06T01:34:14.788Z,53.69
2018-03-06T01:35:53.245Z,53.62
2018-03-06T01:37:30.944Z,53.57
2018-03-06T01:39:09.819Z,53.52
2018-03-06T01:40:48.624Z,53.49
2018-03-06T01:42:26.069Z,53.47
2018-03-06T01:44:04.245Z,53.47
2018-03-06T01:45:42.789Z,53.48
2018-03-06T01:47:21.079Z,53.47
2018-03-06T01:48:59.817Z,53.49
2018-03-06T01:50:37.527Z,53.48
2018-03-06T01:52:16.094Z,53.49
2018-03-06T01:53:54.705Z,53.49
2018-03-06T01:55:33.159Z,53.49
2018-03-06T01:57:10.487Z,53.50
2018-03-06T01:58:48.663Z,53.50
2018-03-06T02:00:29.552Z,53.51
2018-03-06T02:02:07.034Z,53.51
2018-03-06T02:03:45.359Z,53.52
2018-03-06T02:05:23.509Z,53.52
2018-03-06T02:07:00.844Z,53.52
2018-03-06T02:08:38.140Z,53.51
2018-03-06T02:10:15.385Z,53.51
2018-03-06T02:11:52.932Z,53.52
2018-03-06T02:13:30.989Z,53.54
2018-03-06T02:15:07.833Z,53.56
2018-03-06T02:16:45.348Z,53.56
2018-03-06T02:18:24.212Z,53.57
2018-03-06T02:20:02.156Z,53.59
2018-03-06T02:21:40.542Z,53.63
2018-03-06T02:23:18.507Z,53.67
2018-03-06T02:24:57.249Z,53.73
2018-03-06T02:26:34.602Z,53.81
2018-03-06T02:28:12.887Z,53.88
2018-03-06T02:29:51.134Z,53.89
2018-03-06T02:31:30.017Z,53.87
2018-03-06T02:33:07.835Z,53.82
2018-03-06T02:34:45.529Z,53.79
2018-03-06T02:36:23.793Z,53.81
2018-03-06T02:38:01.292Z,53.86
2018-03-06T02:39:38.082Z,53.85
2018-03-06T02:41:14.938Z,53.87
2018-03-06T02:42:52.771Z,53.90
2018-03-06T02:44:30.697Z,53.88
2018-03-06T02:46:13.548Z,53.86
2018-03-06T02:47:51.191Z,53.83
2018-03-06T02:49:29.109Z,53.82
2018-03-06T02:51:06.450Z,53.82
2018-03-06T02:52:43.333Z,53.82
2018-03-06T02:54:20.305Z,53.81
2018-03-06T02:55:59.283Z,53.81
2018-03-06T02:57:36.893Z,53.81
2018-03-06T02:59:13.859Z,53.82
2018-03-06T03:00:51.207Z,53.83
2018-03-06T03:02:29.908Z,53.84
2018-03-06T03:04:08.072Z,53.85
2018-03-06T03:05:44.914Z,53.86
2018-03-06T03:07:22.533Z,53.87
2018-03-06T03:08:59.434Z,53.88
2018-03-06T03:10:36.855Z,53.89
2018-03-06T03:12:14.180Z,53.90
2018-03-06T03:13:52.701Z,53.90
2018-03-06T03:15:29.653Z,53.90
2018-03-06T03:17:08.054Z,53.91
2018-03-06T03:18:45.192Z,53.94
2018-03-06T03:20:22.780Z,53.97
2018-03-06T03:21:59.458Z,53.98
2018-03-06T03:23:36.819Z,53.97
2018-03-06T03:25:13.437Z,53.96
2018-03-06T03:26:50.386Z,53.96
2018-03-06T03:28:27.204Z,53.96
2018-03-06T03:30:05.287Z,53.96
2018-03-06T03:31:42.075Z,53.96
2018-03-06T03:33:22.803Z,53.97
2018-03-06T03:34:59.672Z,53.98
2018-03-06T03:36:36.512Z,54.00
2018-03-06T03:38:13.938Z,54.00
2018-03-06T03:39:50.573Z,54.00
2018-03-06T03:41:28.450Z,54.01
2018-03-06T03:43:05.635Z,54.02
2018-03-06T03:44:43.041Z,54.05
2018-03-06T03:46:20.425Z,54.10
2018-03-06T03:47:57.433Z,54.14
2018-03-06T03:49:34.575Z,54.13
2018-03-06T03:51:13.778Z,54.13
2018-03-06T03:52:50.840Z,54.13
2018-03-06T03:54:27.446Z,54.13
2018-03-06T03:56:06.036Z,54.14
2018-03-06T03:57:42.683Z,54.14
2018-03-06T03:59:19.798Z,54.14
2018-03-06T04:00:56.736Z,54.14
2018-03-06T04:02:35.467Z,54.15
2018-03-06T04:04:12.293Z,54.16
2018-03-06T04:05:49.022Z,54.15
2018-03-06T04:07:26.697Z,54.16
2018-03-06T04:09:05.214Z,54.18
2018-03-06T04:10:41.967Z,54.19
2018-03-06T04:12:18.604Z,54.20
2018-03-06T04:13:55.904Z,54.20
2018-03-06T04:15:33.921Z,54.21
2018-03-06T04:17:12.217Z,54.23
2018-03-06T04:18:49.345Z,54.23
2018-03-06T04:20:26.062Z,54.23
2018-03-06T04:22:02.686Z,54.24
2018-03-06T04:23:40.105Z,54.25
2018-03-06T04:25:16.630Z,54.26
2018-03-06T04:26:54.156Z,54.28
2018-03-06T04:28:31.005Z,54.30
2018-03-06T04:30:08.825Z,54.31
2018-03-06T04:31:46.177Z,54.32
2018-03-06T04:33:22.997Z,54.34
2018-03-06T04:35:00.461Z,54.35
2018-03-06T04:36:37.082Z,54.35
2018-03-06T04:38:14.283Z,54.36
2018-03-06T04:39:51.061Z,54.36
2018-03-06T04:41:28.154Z,54.37
2018-03-06T04:43:04.772Z,54.37
2018-03-06T04:44:41.384Z,54.38
2018-03-06T04:46:18.477Z,54.40
2018-03-06T04:47:56.627Z,54.41
2018-03-06T04:49:33.505Z,54.42
2018-03-06T04:51:10.509Z,54.43
2018-03-06T04:52:48.046Z,54.46
2018-03-06T04:54:25.132Z,54.46
2018-03-06T04:56:01.688Z,54.49
2018-03-06T04:57:38.569Z,54.50
2018-03-06T04:59:15.130Z,54.44
2018-03-06T05:00:53.320Z,54.52
2018-03-06T05:02:29.808Z,54.58
2018-03-06T05:04:06.374Z,54.56
2018-03-06T05:05:42.988Z,54.57
2018-03-06T05:07:19.525Z,54.59
2018-03-06T05:08:57.150Z,54.60
2018-03-06T05:10:33.800Z,54.61
2018-03-06T05:12:10.506Z,54.62
2018-03-06T05:13:48.456Z,54.64
2018-03-06T05:15:28.619Z,54.66
2018-03-06T05:17:06.479Z,54.67
2018-03-06T05:18:43.854Z,54.68
2018-03-06T05:20:21.500Z,54.70
2018-03-06T05:21:58.344Z,54.71
2018-03-06T05:23:35.745Z,54.72
2018-03-06T05:25:12.985Z,54.72
2018-03-06T05:26:50.791Z,54.75
2018-03-06T05:28:28.283Z,54.76
2018-03-06T05:30:06.782Z,54.77
2018-03-06T05:31:44.060Z,54.79
2018-03-06T05:33:21.596Z,54.81
2018-03-06T05:34:58.756Z,54.82
2018-03-06T05:36:36.070Z,54.85
2018-03-06T05:38:14.199Z,54.86
2018-03-06T05:39:53.104Z,54.87
2018-03-06T05:41:30.498Z,54.91
2018-03-06T05:43:07.627Z,54.92
2018-03-06T05:44:45.956Z,54.94
2018-03-06T05:46:24.725Z,54.96
2018-03-06T05:48:03.808Z,54.98
2018-03-06T05:49:41.107Z,55.01
2018-03-06T05:51:20.550Z,55.04
2018-03-06T05:52:58.125Z,55.06
2018-03-06T05:54:35.602Z,55.07
2018-03-06T05:57:50.603Z,55.11
2018-03-06T05:59:27.839Z,55.12
2018-03-06T06:01:05.894Z,55.13
2018-03-06T06:02:43.680Z,55.14
2018-03-06T06:04:21.918Z,55.15
2018-03-06T06:05:59.169Z,55.16
2018-03-06T06:07:37.849Z,55.17
2018-03-06T06:09:17.095Z,55.18
2018-03-06T06:10:54.733Z,55.21
2018-03-06T06:12:32.581Z,55.22
2018-03-06T06:14:10.399Z,55.25
2018-03-06T06:15:50.348Z,55.27
2018-03-06T06:17:28.144Z,55.28
2018-03-06T06:19:05.803Z,55.29
2018-03-06T06:20:43.802Z,55.32
2018-03-06T06:22:22.066Z,55.31
2018-03-06T06:24:00.357Z,55.31
2018-03-06T06:25:38.189Z,55.31
2018-03-06T06:27:16.433Z,55.31
2018-03-06T06:28:53.989Z,55.32
2018-03-06T06:30:32.850Z,55.33
2018-03-06T06:32:10.741Z,55.34
2018-03-06T06:33:48.730Z,55.35
2018-03-06T06:35:26.534Z,55.36
2018-03-06T06:37:04.178Z,55.39
2018-03-06T06:38:42.169Z,55.41
2018-03-06T06:40:20.327Z,55.42
2018-03-06T06:41:58.913Z,55.44
2018-03-06T06:43:36.971Z,55.45
2018-03-06T06:45:16.582Z,55.46
2018-03-06T06:46:55.071Z,55.46
2018-03-06T06:48:32.552Z,55.46
2018-03-06T06:50:10.479Z,55.48
2018-03-06T06:51:48.312Z,55.52
2018-03-06T06:53:26.008Z,55.54
2018-03-06T06:55:03.525Z,55.55
2018-03-06T06:56:43.797Z,55.57
2018-03-06T06:58:21.530Z,55.56
2018-03-06T06:59:59.494Z,55.58
2018-03-06T07:01:37.625Z,55.57
2018-03-06T07:03:16.404Z,55.58
2018-03-06T07:04:54.723Z,55.59
2018-03-06T07:06:32.596Z,55.61
2018-03-06T07:08:10.509Z,55.59
2018-03-06T07:09:48.882Z,55.60
2018-03-06T07:11:27.504Z,55.62
2018-03-06T07:13:06.411Z,55.63
2018-03-06T07:14:43.901Z,55.64
2018-03-06T07:16:22.953Z,55.65
2018-03-06T07:18:00.857Z,55.66
2018-03-06T07:19:39.570Z,55.69
2018-03-06T07:21:17.506Z,55.71
2018-03-06T07:22:55.588Z,55.72
2018-03-06T07:24:33.250Z,55.73
2018-03-06T07:26:10.816Z,55.76
2018-03-06T07:27:48.469Z,55.77
2018-03-06T07:29:26.350Z,55.79
2018-03-06T07:31:04.627Z,55.80
2018-03-06T07:32:43.167Z,55.83
2018-03-06T07:34:21.391Z,55.84
2018-03-06T07:36:00.502Z,55.85
2018-03-06T07:37:39.637Z,55.86
2018-03-06T07:39:17.597Z,55.86
2018-03-06T07:40:55.433Z,55.87
2018-03-06T07:42:33.047Z,55.88
2018-03-06T07:44:10.773Z,55.88
2018-03-06T07:45:49.673Z,55.89
2018-03-06T07:47:27.361Z,55.90
2018-03-06T07:49:05.791Z,55.92
2018-03-06T07:50:43.460Z,55.94
2018-03-06T07:52:21.149Z,55.96
2018-03-06T07:53:58.815Z,55.97
2018-03-06T07:55:37.774Z,55.98
2018-03-06T07:57:16.528Z,56.00
2018-03-06T07:58:54.228Z,56.01
2018-03-06T08:00:31.821Z,56.03
2018-03-06T08:02:10.333Z,56.04
2018-03-06T08:03:48.197Z,56.06
2018-03-06T08:05:26.096Z,56.07
2018-03-06T08:07:03.678Z,56.10
2018-03-06T08:08:42.697Z,56.10
2018-03-06T08:10:21.159Z,56.12
2018-03-06T08:11:58.871Z,56.12
2018-03-06T08:13:36.479Z,56.12
2018-03-06T08:15:15.909Z,56.15
2018-03-06T08:16:54.119Z,56.18
2018-03-06T08:18:32.025Z,56.20
2018-03-06T08:21:42.917Z,56.21
2018-03-06T08:23:20.675Z,56.24
2018-03-06T08:24:59.262Z,56.26
2018-03-06T08:26:38.562Z,56.26
2018-03-06T08:28:17.447Z,56.31
2018-03-06T08:29:55.047Z,56.33
2018-03-06T08:31:32.956Z,56.38
2018-03-06T08:33:11.369Z,56.38
2018-03-06T08:34:49.366Z,56.40
2018-03-06T08:36:27.059Z,56.44
2018-03-06T08:38:04.549Z,56.45
2018-03-06T08:39:42.140Z,56.47
2018-03-06T08:41:20.058Z,56.51
2018-03-06T08:42:57.473Z,56.56
2018-03-06T08:44:35.844Z,56.60
2018-03-06T08:46:13.556Z,56.60
2018-03-06T08:47:51.514Z,56.60
2018-03-06T08:49:29.030Z,56.62
2018-03-06T08:51:06.604Z,56.67
2018-03-06T08:52:44.047Z,56.75
2018-03-06T08:54:22.988Z,56.83
2018-03-06T08:56:00.260Z,56.91
2018-03-06T08:57:38.805Z,56.96
2018-03-06T08:59:16.181Z,56.99
2018-03-06T09:00:54.634Z,57.01
2018-03-06T09:02:33.248Z,57.04
2018-03-06T09:04:10.867Z,57.07
2018-03-06T09:05:48.570Z,57.11
2018-03-06T09:07:27.459Z,57.13
2018-03-06T09:09:05.052Z,57.15
2018-03-06T09:10:43.262Z,57.15
2018-03-06T09:12:21.624Z,57.18
2018-03-06T09:14:00.237Z,57.18
2018-03-06T09:15:38.519Z,57.21
2018-03-06T09:17:15.804Z,57.25
2018-03-06T09:18:53.349Z,57.27
2018-03-06T09:20:31.240Z,57.29
2018-03-06T09:22:09.047Z,57.33
2018-03-06T09:23:46.413Z,57.34
2018-03-06T09:25:23.886Z,57.34
2018-03-06T09:27:02.529Z,57.32
2018-03-06T09:28:39.976Z,57.33
2018-03-06T09:30:18.780Z,57.34
2018-03-06T09:31:56.669Z,57.35
2018-03-06T09:33:34.293Z,57.33
2018-03-06T09:35:12.179Z,57.33
2018-03-06T09:36:49.585Z,57.35
2018-03-06T09:38:26.969Z,57.36
2018-03-06T09:40:04.692Z,57.36
2018-03-06T09:41:41.862Z,57.35
2018-03-06T09:43:19.076Z,57.31
2018-03-06T09:44:56.448Z,57.28
2018-03-06T09:46:35.534Z,57.29
2018-03-06T09:48:12.912Z,57.28
2018-03-06T09:49:50.586Z,57.26
2018-03-06T09:51:28.313Z,57.31
2018-03-06T09:53:06.444Z,57.36
2018-03-06T09:54:44.076Z,57.41
2018-03-06T09:56:21.583Z,57.36
2018-03-06T09:57:59.325Z,57.29
2018-03-06T09:59:37.539Z,57.23
2018-03-06T10:01:16.279Z,57.25
2018-03-06T10:02:53.868Z,57.31
2018-03-06T10:04:31.216Z,57.34
2018-03-06T10:06:08.880Z,57.38
2018-03-06T10:07:46.350Z,57.42
2018-03-06T10:09:24.828Z,57.44
2018-03-06T10:11:04.711Z,57.45
2018-03-06T10:12:46.135Z,57.47
2018-03-06T10:14:23.755Z,57.49
2018-03-06T10:16:01.338Z,57.50
2018-03-06T10:17:39.900Z,57.51
2018-03-06T10:19:18.674Z,57.52
2018-03-06T10:20:56.665Z,57.53
2018-03-06T10:22:35.278Z,57.51
2018-03-06T10:24:13.678Z,57.53
2018-03-06T10:25:51.896Z,57.54
2018-03-06T10:27:29.316Z,57.54
2018-03-06T10:29:06.798Z,57.54
2018-03-06T10:30:44.613Z,57.53
2018-03-06T10:32:22.521Z,57.54
2018-03-06T10:33:59.993Z,57.54
2018-03-06T10:35:37.458Z,57.54
2018-03-06T10:37:15.266Z,57.51
2018-03-06T10:38:55.257Z,57.49
2018-03-06T10:40:32.770Z,57.48
2018-03-06T10:42:10.555Z,57.50
2018-03-06T10:43:47.864Z,57.54
2018-03-06T10:45:29.288Z,57.52
2018-03-06T10:47:06.772Z,57.47
2018-03-06T10:48:44.086Z,57.37
2018-03-06T10:50:22.462Z,57.30
2018-03-06T10:51:59.950Z,57.24
2018-03-06T10:53:38.240Z,57.24
2018-03-06T10:55:16.830Z,57.28
2018-03-06T10:56:55.098Z,57.29
2018-03-06T10:58:33.462Z,57.30
2018-03-06T11:00:11.406Z,57.29
2018-03-06T11:01:49.964Z,57.27
2018-03-06T11:03:27.219Z,57.26
2018-03-06T11:05:05.060Z,57.27
2018-03-06T11:06:42.781Z,57.29
2018-03-06T11:09:48.867Z,57.32
2018-03-06T11:11:26.633Z,57.33
2018-03-06T11:13:05.011Z,57.30
2018-03-06T11:14:45.570Z,57.30
2018-03-06T11:16:23.178Z,57.33
2018-03-06T11:18:00.928Z,57.36
2018-03-06T11:19:38.230Z,57.34
2018-03-06T11:21:15.815Z,57.35
2018-03-06T11:22:54.034Z,57.35
2018-03-06T11:24:32.378Z,57.37
2018-03-06T11:26:09.679Z,57.38
2018-03-06T11:27:46.927Z,57.38
2018-03-06T11:29:24.532Z,57.38
2018-03-06T11:31:02.581Z,57.37
2018-03-06T11:32:40.852Z,57.33
2018-03-06T11:34:18.223Z,57.34
2018-03-06T11:35:55.906Z,57.32
2018-03-06T11:37:35.970Z,57.34
2018-03-06T11:39:13.414Z,57.33
2018-03-06T11:40:50.994Z,57.30
2018-03-06T11:42:28.270Z,57.27
2018-03-06T11:44:06.202Z,57.26
2018-03-06T11:45:43.649Z,57.25
2018-03-06T11:47:21.002Z,57.24
2018-03-06T11:48:58.412Z,57.21
2018-03-06T11:50:36.520Z,57.18
2018-03-06T11:52:14.451Z,57.17
2018-03-06T11:53:51.766Z,57.17
2018-03-06T11:55:29.027Z,57.16
2018-03-06T11:57:07.166Z,57.15
2018-03-06T11:58:44.435Z,57.14
2018-03-06T12:00:22.161Z,57.14
2018-03-06T12:03:31.042Z,57.11
2018-03-06T12:05:08.589Z,57.07
2018-03-06T12:06:45.886Z,57.08
2018-03-06T12:08:23.195Z,57.10
2018-03-06T12:10:00.605Z,57.05
2018-03-06T12:11:37.820Z,57.03
2018-03-06T12:13:15.159Z,57.04
2018-03-06T12:14:53.012Z,56.98
2018-03-06T12:16:37.549Z,56.97
2018-03-06T12:18:38.334Z,56.98
2018-03-06T12:20:21.714Z,56.98
2018-03-06T12:22:00.923Z,56.99
2018-03-06T12:23:38.908Z,56.99
2018-03-06T12:25:18.010Z,56.97
2018-03-06T12:26:56.156Z,56.93
2018-03-06T12:28:36.123Z,56.93
2018-03-06T12:30:15.478Z,56.90
2018-03-06T12:31:54.098Z,56.87
2018-03-06T12:33:33.146Z,56.84
2018-03-06T12:35:11.152Z,56.82
2018-03-06T12:36:50.114Z,56.78
2018-03-06T12:38:28.425Z,56.75
2018-03-06T12:40:07.378Z,56.74
2018-03-06T12:41:45.321Z,56.75
2018-03-06T12:43:23.606Z,56.72
2018-03-06T12:45:01.169Z,56.66
2018-03-06T12:46:39.638Z,56.65
2018-03-06T12:48:17.540Z,56.63
2018-03-06T12:49:55.178Z,56.61
2018-03-06T12:51:32.369Z,56.62
2018-03-06T12:53:10.132Z,56.63
2018-03-06T12:54:48.567Z,56.62
2018-03-06T12:56:29.123Z,56.62
2018-03-06T12:58:06.773Z,56.61
2018-03-06T12:59:44.581Z,56.61
2018-03-06T13:01:22.651Z,56.60
2018-03-06T13:03:00.069Z,56.60
2018-03-06T13:04:38.543Z,56.58
2018-03-06T13:06:16.556Z,56.59
2018-03-06T13:07:55.511Z,56.49
2018-03-06T13:09:32.831Z,56.44
2018-03-06T13:11:09.994Z,56.41
2018-03-06T13:12:47.526Z,56.38
2018-03-06T13:14:24.923Z,56.36
2018-03-06T13:16:02.330Z,56.31
2018-03-06T13:17:40.292Z,56.30
2018-03-06T13:19:17.845Z,56.31
2018-03-06T13:20:55.974Z,56.31
2018-03-06T13:22:33.875Z,56.30
2018-03-06T13:24:11.644Z,56.28
2018-03-06T13:25:49.151Z,56.23
2018-03-06T13:27:27.082Z,56.23
2018-03-06T13:29:05.037Z,56.22
2018-03-06T13:30:43.334Z,56.23
2018-03-06T13:32:21.542Z,56.21
2018-03-06T13:33:58.678Z,56.19
2018-03-06T13:35:36.403Z,56.17
2018-03-06T13:37:13.421Z,56.15
2018-03-06T13:38:50.841Z,56.16
2018-03-06T13:40:28.699Z,56.12
2018-03-06T13:42:05.911Z,56.09
2018-03-06T13:43:42.840Z,56.06
2018-03-06T13:45:21.509Z,56.00
2018-03-06T13:47:02.220Z,55.97
2018-03-06T13:48:40.155Z,55.92
2018-03-06T13:50:17.759Z,55.90
2018-03-06T13:51:56.650Z,55.86
2018-03-06T13:53:33.853Z,55.83
2018-03-06T13:55:10.942Z,55.80
2018-03-06T13:56:48.385Z,55.78
2018-03-06T13:58:26.828Z,55.77
2018-03-06T14:00:04.192Z,55.76
2018-03-06T14:01:42.002Z,55.75
2018-03-06T14:03:20.871Z,55.75
2018-03-06T14:04:59.484Z,55.73
2018-03-06T14:06:37.535Z,55.72
2018-03-06T14:08:16.109Z,55.72
2018-03-06T14:09:53.218Z,55.69
2018-03-06T14:11:31.065Z,55.65
2018-03-06T14:13:08.203Z,55.62
2018-03-06T14:14:50.507Z,55.62
2018-03-06T14:16:28.764Z,55.63
2018-03-06T14:18:06.104Z,55.62
2018-03-06T14:19:43.832Z,55.62
2018-03-06T14:21:20.753Z,55.61
2018-03-06T14:22:58.613Z,55.59
2018-03-06T14:24:35.811Z,55.57
2018-03-06T14:26:12.961Z,55.56
2018-03-06T14:27:50.434Z,55.55
2018-03-06T14:29:29.835Z,55.53
2018-03-06T14:31:07.420Z,55.48
2018-03-06T14:32:45.327Z,55.47
2018-03-06T14:34:22.216Z,55.44
2018-03-06T14:36:00.044Z,55.40
2018-03-06T14:37:38.025Z,55.37
2018-03-06T14:39:15.044Z,55.33
2018-03-06T14:40:53.088Z,55.32
2018-03-06T14:42:31.590Z,55.32
2018-03-06T14:45:44.102Z,55.31
2018-03-06T14:47:21.352Z,55.28
2018-03-06T14:48:58.719Z,55.26
2018-03-06T14:50:35.838Z,55.25
2018-03-06T14:52:14.739Z,55.23
2018-03-06T14:53:57.809Z,55.23
2018-03-06T14:55:36.951Z,55.22
2018-03-06T14:57:15.182Z,55.21
2018-03-06T14:59:01.376Z,55.19
2018-03-06T15:00:38.892Z,55.20
2018-03-06T15:02:18.587Z,55.20
2018-03-06T15:03:57.067Z,55.21
2018-03-06T15:05:34.646Z,55.19
2018-03-06T15:07:11.951Z,55.19
2018-03-06T15:08:50.742Z,55.18
2018-03-06T15:10:27.723Z,55.17
2018-03-06T15:12:04.819Z,55.16
2018-03-06T15:13:41.897Z,55.13
2018-03-06T15:15:21.845Z,55.09
2018-03-06T15:17:03.267Z,55.08
2018-03-06T15:18:40.790Z,55.08
2018-03-06T15:20:18.060Z,55.07
2018-03-06T15:21:58.280Z,55.09
2018-03-06T15:23:35.527Z,55.08
2018-03-06T15:25:12.622Z,55.05
2018-03-06T15:26:49.738Z,55.02
2018-03-06T15:28:29.187Z,55.00
2018-03-06T15:30:06.454Z,54.98
2018-03-06T15:31:51.311Z,54.99
2018-03-06T15:33:31.727Z,54.95
2018-03-06T15:35:08.777Z,54.94
2018-03-06T15:36:45.870Z,54.94
2018-03-06T15:38:23.140Z,54.92
2018-03-06T15:40:00.592Z,54.91
2018-03-06T15:41:38.253Z,54.90
2018-03-06T15:43:16.299Z,54.87
2018-03-06T15:44:53.408Z,54.85
2018-03-06T15:46:30.549Z,54.80
2018-03-06T15:48:09.747Z,54.76
2018-03-06T15:49:48.769Z,54.76
2018-03-06T15:51:47.453Z,54.76
2018-03-06T15:53:25.604Z,54.78
2018-03-06T15:55:03.325Z,54.77
2018-03-06T15:56:41.223Z,54.78
2018-03-06T15:58:18.722Z,54.77
2018-03-06T15:59:59.506Z,54.75
2018-03-06T16:01:39.628Z,54.71
2018-03-06T16:03:27.329Z,54.68
2018-03-06T16:05:05.725Z,54.65
2018-03-06T16:06:44.891Z,54.64
2018-03-06T16:10:01.052Z,54.62
2018-03-06T16:11:42.061Z,54.59
2018-03-06T16:13:20.336Z,54.60
2018-03-06T16:14:57.370Z,54.60
2018-03-06T16:16:34.715Z,54.61
2018-03-06T16:18:12.064Z,54.61
2018-03-06T16:19:49.668Z,54.60
2018-03-06T16:21:27.755Z,54.58
2018-03-06T16:23:05.055Z,54.57
2018-03-06T16:24:42.652Z,54.55
2018-03-06T16:26:21.087Z,54.55
2018-03-06T16:29:37.253Z,54.54
2018-03-06T16:31:19.648Z,54.55
2018-03-06T16:32:58.128Z,54.54
2018-03-06T16:34:35.902Z,54.55
2018-03-06T16:36:13.450Z,54.53
2018-03-06T16:37:50.858Z,54.50
2018-03-06T16:39:32.917Z,54.49
2018-03-06T16:41:11.569Z,54.48
2018-03-06T16:42:49.539Z,54.46
2018-03-06T16:44:27.024Z,54.44
2018-03-06T16:46:28.849Z,54.40
2018-03-06T16:48:05.998Z,54.36
2018-03-06T16:49:43.138Z,54.34
2018-03-06T16:51:21.673Z,54.32
2018-03-06T16:53:00.386Z,54.31
2018-03-06T16:54:38.472Z,54.29
2018-03-06T16:56:17.300Z,54.27
2018-03-06T16:57:56.349Z,54.26
2018-03-06T16:59:34.294Z,54.26
2018-03-06T17:01:22.995Z,54.25
2018-03-06T17:03:09.660Z,54.26
2018-03-06T17:04:48.302Z,54.25
2018-03-06T17:06:26.380Z,54.24
2018-03-06T17:08:14.512Z,54.25
2018-03-06T17:09:53.389Z,54.25
2018-03-06T17:11:33.618Z,54.24
2018-03-06T17:13:11.942Z,54.24
2018-03-06T17:14:55.180Z,54.22
2018-03-06T17:16:37.202Z,54.21
2018-03-06T17:18:16.505Z,54.19
2018-03-06T17:19:56.471Z,54.19
2018-03-06T17:21:35.915Z,54.19
2018-03-06T17:23:13.843Z,54.17
2018-03-06T17:24:52.282Z,54.14
2018-03-06T17:26:30.690Z,54.13
2018-03-06T17:28:09.399Z,54.12
2018-03-06T17:31:27.832Z,54.10
2018-03-06T17:33:07.764Z,54.07
2018-03-06T17:34:50.195Z,54.07
2018-03-06T17:36:29.120Z,54.05
2018-03-06T17:38:08.712Z,54.03
2018-03-06T17:39:46.822Z,54.07
2018-03-06T17:41:25.565Z,53.99
2018-03-06T17:43:05.265Z,53.97
2018-03-06T17:44:44.246Z,53.97
2018-03-06T17:46:23.570Z,53.96
2018-03-06T17:48:03.212Z,53.94
2018-03-06T17:49:42.270Z,53.93
2018-03-06T17:51:20.282Z,53.90
2018-03-06T17:52:58.954Z,53.89
2018-03-06T17:54:36.855Z,53.88
2018-03-06T17:56:15.576Z,53.88
2018-03-06T17:57:53.951Z,53.89
2018-03-06T17:59:32.087Z,53.86
2018-03-06T18:01:11.518Z,53.79
2018-03-06T18:02:49.808Z,53.78
2018-03-06T18:04:28.280Z,53.73
2018-03-06T18:06:07.130Z,53.71
2018-03-06T18:07:44.920Z,53.70
2018-03-06T18:09:24.104Z,53.69
2018-03-06T18:11:19.780Z,53.69
2018-03-06T18:13:02.600Z,53.70
2018-03-06T18:14:43.409Z,53.71
2018-03-06T18:16:22.108Z,53.71
2018-03-06T18:18:04.133Z,53.70
2018-03-06T18:19:44.215Z,53.69
2018-03-06T18:21:25.926Z,53.68
2018-03-06T18:23:05.908Z,53.68
2018-03-06T18:24:46.178Z,53.68
2018-03-06T18:26:23.980Z,53.69
2018-03-06T18:28:02.685Z,53.69
2018-03-06T18:29:45.493Z,53.69
2018-03-06T18:31:23.718Z,53.70
2018-03-06T18:33:02.479Z,53.70
2018-03-06T18:34:41.168Z,53.71
2018-03-06T18:36:28.951Z,53.71
2018-03-06T18:38:08.429Z,53.71
2018-03-06T18:39:48.098Z,53.71
2018-03-06T18:41:28.067Z,53.72
2018-03-06T18:43:07.288Z,53.73
2018-03-06T18:44:44.700Z,53.72
2018-03-06T18:46:23.646Z,53.75
2018-03-06T18:48:01.536Z,53.75
2018-03-06T18:49:43.856Z,53.74
2018-03-06T18:51:21.209Z,53.73
2018-03-06T18:53:00.497Z,53.72
2018-03-06T18:54:37.640Z,53.72
2018-03-06T18:56:14.745Z,53.71
2018-03-06T18:57:53.331Z,53.71
2018-03-06T18:59:30.390Z,53.71
2018-03-06T19:03:26.818Z,53.72
2018-03-06T19:07:22.242Z,53.72
2018-03-06T19:08:59.746Z,53.72
2018-03-06T19:10:38.972Z,53.72
2018-03-06T19:12:18.088Z,53.72
2018-03-06T19:13:55.267Z,53.73
2018-03-06T19:15:35.413Z,53.72
2018-03-06T19:17:13.140Z,53.73
2018-03-06T19:20:46.665Z,53.71
2018-03-06T19:22:23.871Z,53.71
2018-03-06T19:24:02.244Z,53.71
2018-03-06T19:25:39.316Z,53.70
2018-03-06T19:27:16.403Z,53.71
2018-03-06T19:28:53.441Z,53.71
2018-03-06T19:30:31.540Z,53.72
2018-03-06T19:32:08.658Z,53.72
2018-03-06T19:33:45.770Z,53.73
2018-03-06T19:35:23.774Z,53.72
2018-03-06T19:37:01.191Z,53.72
2018-03-06T19:38:41.469Z,53.73
2018-03-06T19:40:18.958Z,53.72
2018-03-06T19:41:56.261Z,53.70
2018-03-06T19:43:33.373Z,53.68
2018-03-06T19:45:10.489Z,53.68
2018-03-06T19:46:47.645Z,53.68
2018-03-06T19:48:26.118Z,53.68
2018-03-06T19:50:03.697Z,53.67
2018-03-06T19:51:41.021Z,53.65
2018-03-06T19:53:18.148Z,53.65
2018-03-06T19:54:58.397Z,53.63
2018-03-06T19:56:36.439Z,53.62
2018-03-06T19:58:13.722Z,53.62
2018-03-06T19:59:52.071Z,53.62
2018-03-06T20:01:29.739Z,53.62
2018-03-06T20:03:06.701Z,53.63
2018-03-06T20:04:43.906Z,53.64
2018-03-06T20:06:21.495Z,53.64
2018-03-06T20:07:59.231Z,53.64
2018-03-06T20:09:36.634Z,53.66
2018-03-06T20:11:14.984Z,53.67
2018-03-06T20:12:55.005Z,53.67
2018-03-06T20:14:37.504Z,53.68
2018-03-06T20:16:15.655Z,53.67
2018-03-06T20:17:52.710Z,53.66
2018-03-06T20:19:33.724Z,53.66
2018-03-06T20:21:11.221Z,53.64
2018-03-06T20:22:48.843Z,53.64
2018-03-06T20:24:30.558Z,53.64
2018-03-06T20:26:08.181Z,53.66
2018-03-06T20:27:46.093Z,53.67
2018-03-06T20:29:23.235Z,53.67
2018-03-06T20:31:04.499Z,53.69
2018-03-06T20:33:17.084Z,53.70
2018-03-06T20:34:54.925Z,53.70
2018-03-06T20:36:31.975Z,53.72
2018-03-06T20:38:11.028Z,53.74
2018-03-06T20:40:54.063Z,53.74
2018-03-06T20:42:31.300Z,53.77
2018-03-06T20:44:09.031Z,53.77
2018-03-06T20:45:51.315Z,53.78
2018-03-06T20:47:29.266Z,53.80
2018-03-06T20:49:06.247Z,53.80
2018-03-06T20:50:44.461Z,53.79
2018-03-06T20:52:21.622Z,53.79
2018-03-06T20:55:11.395Z,53.80
2018-03-06T20:56:48.847Z,53.79
2018-03-06T20:58:26.727Z,53.80
2018-03-06T21:00:04.730Z,53.79
2018-03-06T21:01:42.285Z,53.78
2018-03-06T21:03:19.861Z,53.78
2018-03-06T21:04:56.978Z,53.79
2018-03-06T21:06:35.579Z,53.79
2018-03-06T21:09:43.151Z,53.79
2018-03-06T21:11:20.595Z,53.80
2018-03-06T21:12:57.675Z,53.80
2018-03-06T21:14:34.762Z,53.80
2018-03-06T21:16:12.686Z,53.79
2018-03-06T21:17:49.988Z,53.80
2018-03-06T21:19:27.228Z,53.80
2018-03-06T21:21:07.347Z,53.80
2018-03-06T21:22:51.003Z,53.79
2018-03-06T21:24:30.887Z,53.77
2018-03-06T21:26:14.560Z,53.75
2018-03-06T21:27:53.134Z,53.76
2018-03-06T21:29:33.437Z,53.76